sensor_id;sensor_type;location;lat;lon;timestamp;pressure;altitude;pressure_sealevel;temperature;humidity
54540;BME280;40438;52.992;18.604;2022-09-09T00:00:09;100624.19;;;13.44;96.64
54540;BME280;40438;52.992;18.604;2022-09-09T00:02:38;100624.66;;;13.41;97.06
54540;BME280;40438;52.992;18.604;2022-09-09T00:05:16;100618.94;;;13.37;97.07
54540;BME280;40438;52.992;18.604;2022-09-09T00:07:45;100619.53;;;13.28;96.96
54540;BME280;40438;52.992;18.604;2022-09-09T00:10:18;100617.09;;;13.26;98.50
54540;BME280;40438;52.992;18.604;2022-09-09T00:12:52;100622.22;;;13.28;98.08
54540;BME280;40438;52.992;18.604;2022-09-09T00:15:21;100620.81;;;13.25;98.73
54540;BME280;40438;52.992;18.604;2022-09-09T00:17:53;100623.50;;;13.25;99.03
54540;BME280;40438;52.992;18.604;2022-09-09T00:20:27;100621.63;;;13.26;98.94
54540;BME280;40438;52.992;18.604;2022-09-09T00:22:59;100617.31;;;13.24;98.15
54540;BME280;40438;52.992;18.604;2022-09-09T00:25:31;100621.03;;;13.23;98.81
54540;BME280;40438;52.992;18.604;2022-09-09T00:27:58;100618.72;;;13.27;98.57
54540;BME280;40438;52.992;18.604;2022-09-09T00:30:26;100623.63;;;13.30;99.04
54540;BME280;40438;52.992;18.604;2022-09-09T00:32:55;100620.00;;;13.24;99.50
54540;BME280;40438;52.992;18.604;2022-09-09T00:35:26;100628.50;;;13.21;99.40
54540;BME280;40438;52.992;18.604;2022-09-09T00:37:57;100626.19;;;13.25;99.57
54540;BME280;40438;52.992;18.604;2022-09-09T00:40:27;100616.13;;;13.20;100.00
54540;BME280;40438;52.992;18.604;2022-09-09T00:43:08;100620.91;;;13.18;100.00
54540;BME280;40438;52.992;18.604;2022-09-09T00:45:56;100620.81;;;13.13;100.00
54540;BME280;40438;52.992;18.604;2022-09-09T00:48:32;100620.34;;;13.16;100.00
54540;BME280;40438;52.992;18.604;2022-09-09T00:51:05;100609.09;;;13.08;100.00
54540;BME280;40438;52.992;18.604;2022-09-09T00:53:38;100615.75;;;13.05;100.00
54540;BME280;40438;52.992;18.604;2022-09-09T00:56:12;100619.63;;;13.09;100.00
54540;BME280;40438;52.992;18.604;2022-09-09T00:58:37;100619.53;;;13.04;100.00
54540;BME280;40438;52.992;18.604;2022-09-09T01:01:05;100625.81;;;12.98;100.00
54540;BME280;40438;52.992;18.604;2022-09-09T01:03:37;100631.66;;;12.95;100.00
54540;BME280;40438;52.992;18.604;2022-09-09T01:06:13;100631.31;;;13.03;100.00
54540;BME280;40438;52.992;18.604;2022-09-09T01:08:52;100626.38;;;13.00;100.00
54540;BME280;40438;52.992;18.604;2022-09-09T01:11:26;100625.81;;;12.98;100.00
54540;BME280;40438;52.992;18.604;2022-09-09T01:14:00;100624.75;;;12.99;100.00
54540;BME280;40438;52.992;18.604;2022-09-09T01:16:30;100625.94;;;12.91;100.00
54540;BME280;40438;52.992;18.604;2022-09-09T01:18:59;100623.81;;;12.82;100.00
54540;BME280;40438;52.992;18.604;2022-09-09T01:21:40;100633.50;;;12.83;100.00
54540;BME280;40438;52.992;18.604;2022-09-09T01:24:22;100628.25;;;12.76;100.00
54540;BME280;40438;52.992;18.604;2022-09-09T01:27:17;100631.41;;;12.73;100.00
54540;BME280;40438;52.992;18.604;2022-09-09T01:29:44;100626.94;;;12.67;100.00
54540;BME280;40438;52.992;18.604;2022-09-09T01:32:40;100623.78;;;12.70;100.00
54540;BME280;40438;52.992;18.604;2022-09-09T01:35:10;100624.25;;;12.67;100.00
54540;BME280;40438;52.992;18.604;2022-09-09T01:37:36;100630.31;;;12.62;100.00
54540;BME280;40438;52.992;18.604;2022-09-09T01:40:02;100633.47;;;12.59;100.00
54540;BME280;40438;52.992;18.604;2022-09-09T01:42:31;100648.13;;;12.75;100.00
54540;BME280;40438;52.992;18.604;2022-09-09T01:44:58;100637.91;;;12.65;100.00
54540;BME280;40438;52.992;18.604;2022-09-09T01:47:24;100637.78;;;12.60;100.00
54540;BME280;40438;52.992;18.604;2022-09-09T01:50:10;100647.13;;;12.58;100.00
54540;BME280;40438;52.992;18.604;2022-09-09T01:52:38;100638.25;;;12.57;100.00
54540;BME280;40438;52.992;18.604;2022-09-09T01:55:08;100637.34;;;12.63;100.00
54540;BME280;40438;52.992;18.604;2022-09-09T01:57:43;100635.56;;;12.57;100.00
54540;BME280;40438;52.992;18.604;2022-09-09T02:00:14;100632.63;;;12.59;100.00
54540;BME280;40438;52.992;18.604;2022-09-09T02:02:46;100638.38;;;12.62;100.00
54540;BME280;40438;52.992;18.604;2022-09-09T02:05:28;100635.09;;;12.60;100.00
54540;BME280;40438;52.992;18.604;2022-09-09T02:08:02;100632.06;;;12.57;100.00
54540;BME280;40438;52.992;18.604;2022-09-09T02:10:44;100627.03;;;12.60;100.00
54540;BME280;40438;52.992;18.604;2022-09-09T02:13:29;100623.66;;;12.53;100.00
54540;BME280;40438;52.992;18.604;2022-09-09T02:16:00;100626.44;;;12.46;100.00
54540;BME280;40438;52.992;18.604;2022-09-09T02:18:29;100623.50;;;12.48;100.00
54540;BME280;40438;52.992;18.604;2022-09-09T02:20:57;100628.19;;;12.52;100.00
54540;BME280;40438;52.992;18.604;2022-09-09T02:23:24;100623.75;;;12.46;100.00
54540;BME280;40438;52.992;18.604;2022-09-09T02:25:54;100621.28;;;12.45;100.00
54540;BME280;40438;52.992;18.604;2022-09-09T02:28:25;100616.72;;;12.45;100.00
54540;BME280;40438;52.992;18.604;2022-09-09T02:30:53;100623.00;;;12.39;100.00
54540;BME280;40438;52.992;18.604;2022-09-09T02:33:20;100617.63;;;12.39;100.00
54540;BME280;40438;52.992;18.604;2022-09-09T02:35:51;100621.59;;;12.37;100.00
54540;BME280;40438;52.992;18.604;2022-09-09T02:38:21;100618.91;;;12.37;100.00
54540;BME280;40438;52.992;18.604;2022-09-09T02:40:56;100618.44;;;12.40;100.00
54540;BME280;40438;52.992;18.604;2022-09-09T02:43:22;100621.03;;;12.35;100.00
54540;BME280;40438;52.992;18.604;2022-09-09T02:46:00;100618.09;;;12.36;100.00
54540;BME280;40438;52.992;18.604;2022-09-09T02:48:34;100624.53;;;12.35;100.00
54540;BME280;40438;52.992;18.604;2022-09-09T02:51:07;100625.94;;;12.38;100.00
54540;BME280;40438;52.992;18.604;2022-09-09T02:53:39;100622.28;;;12.32;100.00
54540;BME280;40438;52.992;18.604;2022-09-09T02:56:13;100617.63;;;12.27;100.00
54540;BME280;40438;52.992;18.604;2022-09-09T02:58:43;100620.31;;;12.27;100.00
54540;BME280;40438;52.992;18.604;2022-09-09T03:01:10;100624.16;;;12.31;100.00
54540;BME280;40438;52.992;18.604;2022-09-09T03:03:36;100627.41;;;12.34;100.00
54540;BME280;40438;52.992;18.604;2022-09-09T03:06:07;100628.63;;;12.38;100.00
54540;BME280;40438;52.992;18.604;2022-09-09T03:08:33;100627.31;;;12.28;100.00
54540;BME280;40438;52.992;18.604;2022-09-09T03:11:00;100622.75;;;12.29;100.00
54540;BME280;40438;52.992;18.604;2022-09-09T03:13:28;100622.03;;;12.34;100.00
54540;BME280;40438;52.992;18.604;2022-09-09T03:15:53;100624.88;;;12.39;100.00
54540;BME280;40438;52.992;18.604;2022-09-09T03:18:22;100629.19;;;12.40;100.00
54540;BME280;40438;52.992;18.604;2022-09-09T03:20:51;100626.97;;;12.37;100.00
54540;BME280;40438;52.992;18.604;2022-09-09T03:23:19;100633.28;;;12.42;100.00
54540;BME280;40438;52.992;18.604;2022-09-09T03:25:49;100633.53;;;12.41;100.00
54540;BME280;40438;52.992;18.604;2022-09-09T03:28:17;100630.38;;;12.44;100.00
54540;BME280;40438;52.992;18.604;2022-09-09T03:30:43;100630.69;;;12.36;100.00
54540;BME280;40438;52.992;18.604;2022-09-09T03:33:08;100634.56;;;12.40;100.00
54540;BME280;40438;52.992;18.604;2022-09-09T03:35:36;100631.41;;;12.43;100.00
54540;BME280;40438;52.992;18.604;2022-09-09T03:38:02;100632.84;;;12.45;100.00
54540;BME280;40438;52.992;18.604;2022-09-09T03:40:30;100630.28;;;12.50;100.00
54540;BME280;40438;52.992;18.604;2022-09-09T03:42:56;100637.53;;;12.50;100.00
54540;BME280;40438;52.992;18.604;2022-09-09T03:45:24;100638.09;;;12.52;100.00
54540;BME280;40438;52.992;18.604;2022-09-09T03:47:50;100628.78;;;12.54;100.00
54540;BME280;40438;52.992;18.604;2022-09-09T03:50:16;100631.47;;;12.54;100.00
54540;BME280;40438;52.992;18.604;2022-09-09T03:52:46;100636.38;;;12.58;100.00
54540;BME280;40438;52.992;18.604;2022-09-09T03:55:19;100632.88;;;12.57;100.00
54540;BME280;40438;52.992;18.604;2022-09-09T03:57:46;100627.50;;;12.57;100.00
54540;BME280;40438;52.992;18.604;2022-09-09T04:00:12;100638.00;;;12.59;100.00
54540;BME280;40438;52.992;18.604;2022-09-09T04:02:49;100638.91;;;12.52;100.00
54540;BME280;40438;52.992;18.604;2022-09-09T04:05:16;100638.91;;;12.52;100.00
54540;BME280;40438;52.992;18.604;2022-09-09T04:07:46;100640.78;;;12.52;100.00
54540;BME280;40438;52.992;18.604;2022-09-09T04:10:12;100641.84;;;12.51;100.00
54540;BME280;40438;52.992;18.604;2022-09-09T04:12:39;100637.63;;;12.43;100.00
54540;BME280;40438;52.992;18.604;2022-09-09T04:15:06;100627.25;;;12.47;100.00
54540;BME280;40438;52.992;18.604;2022-09-09T04:17:32;100638.22;;;12.45;100.00
54540;BME280;40438;52.992;18.604;2022-09-09T04:19:58;100634.41;;;12.53;100.00
54540;BME280;40438;52.992;18.604;2022-09-09T04:22:24;100636.63;;;12.56;100.00
54540;BME280;40438;52.992;18.604;2022-09-09T04:24:51;100634.50;;;12.58;100.00
54540;BME280;40438;52.992;18.604;2022-09-09T04:27:18;100639.78;;;12.53;100.00
54540;BME280;40438;52.992;18.604;2022-09-09T04:29:45;100633.78;;;12.51;100.00
54540;BME280;40438;52.992;18.604;2022-09-09T04:32:12;100644.28;;;12.52;100.00
54540;BME280;40438;52.992;18.604;2022-09-09T04:34:38;100633.69;;;12.58;100.00
54540;BME280;40438;52.992;18.604;2022-09-09T04:37:04;100638.16;;;12.64;100.00
54540;BME280;40438;52.992;18.604;2022-09-09T04:39:30;100639.56;;;12.66;100.00
54540;BME280;40438;52.992;18.604;2022-09-09T04:41:59;100647.28;;;12.63;100.00
54540;BME280;40438;52.992;18.604;2022-09-09T04:44:25;100643.53;;;12.64;100.00
54540;BME280;40438;52.992;18.604;2022-09-09T04:46:51;100642.47;;;12.65;100.00
54540;BME280;40438;52.992;18.604;2022-09-09T04:49:16;100642.47;;;12.65;100.00
54540;BME280;40438;52.992;18.604;2022-09-09T04:51:42;100639.56;;;12.66;100.00
54540;BME280;40438;52.992;18.604;2022-09-09T04:54:08;100646.09;;;12.70;100.00
54540;BME280;40438;52.992;18.604;2022-09-09T04:56:35;100646.91;;;12.71;100.00
54540;BME280;40438;52.992;18.604;2022-09-09T04:59:02;100647.03;;;12.64;100.00
54540;BME280;40438;52.992;18.604;2022-09-09T05:01:40;100646.66;;;12.61;100.00
54540;BME280;40438;52.992;18.604;2022-09-09T05:04:07;100642.72;;;12.63;100.00
54540;BME280;40438;52.992;18.604;2022-09-09T05:06:34;100646.22;;;12.64;100.00
54540;BME280;40438;52.992;18.604;2022-09-09T05:09:00;100653.47;;;12.63;100.00
54540;BME280;40438;52.992;18.604;2022-09-09T05:11:29;100651.53;;;12.52;100.00
54540;BME280;40438;52.992;18.604;2022-09-09T05:14:05;100657.06;;;12.57;100.00
54540;BME280;40438;52.992;18.604;2022-09-09T05:16:31;100652.03;;;12.61;100.00
54540;BME280;40438;52.992;18.604;2022-09-09T05:18:57;100654.13;;;12.59;100.00
54540;BME280;40438;52.992;18.604;2022-09-09T05:21:24;100658.69;;;12.58;100.00
54540;BME280;40438;52.992;18.604;2022-09-09T05:23:50;100661.38;;;12.58;100.00
54540;BME280;40438;52.992;18.604;2022-09-09T05:26:20;100659.97;;;12.55;100.00
54540;BME280;40438;52.992;18.604;2022-09-09T05:28:48;100658.22;;;12.61;100.00
54540;BME280;40438;52.992;18.604;2022-09-09T05:31:16;100659.50;;;12.59;100.00
54540;BME280;40438;52.992;18.604;2022-09-09T05:33:45;100661.53;;;12.63;100.00
54540;BME280;40438;52.992;18.604;2022-09-09T05:36:14;100667.47;;;12.65;100.00
54540;BME280;40438;52.992;18.604;2022-09-09T05:38:42;100670.16;;;12.65;100.00
54540;BME280;40438;52.992;18.604;2022-09-09T05:41:09;100671.22;;;12.64;100.00
54540;BME280;40438;52.992;18.604;2022-09-09T05:43:35;100667.84;;;12.69;100.00
54540;BME280;40438;52.992;18.604;2022-09-09T05:46:04;100669.13;;;12.66;100.00
54540;BME280;40438;52.992;18.604;2022-09-09T05:48:33;100668.53;;;12.64;100.00
54540;BME280;40438;52.992;18.604;2022-09-09T05:50:59;100667.47;;;12.65;100.00
54540;BME280;40438;52.992;18.604;2022-09-09T05:53:25;100667.72;;;12.64;100.00
54540;BME280;40438;52.992;18.604;2022-09-09T05:55:59;100670.75;;;12.67;100.00
54540;BME280;40438;52.992;18.604;2022-09-09T05:58:26;100667.59;;;12.70;100.00
54540;BME280;40438;52.992;18.604;2022-09-09T06:00:52;100661.41;;;12.70;100.00
54540;BME280;40438;52.992;18.604;2022-09-09T06:03:18;100664.78;;;12.65;100.00
54540;BME280;40438;52.992;18.604;2022-09-09T06:05:45;100675.06;;;12.68;100.00
54540;BME280;40438;52.992;18.604;2022-09-09T06:08:11;100666.34;;;12.73;100.00
54540;BME280;40438;52.992;18.604;2022-09-09T06:10:37;100668.56;;;12.76;100.00
54540;BME280;40438;52.992;18.604;2022-09-09T06:13:03;100685.97;;;12.73;100.00
54540;BME280;40438;52.992;18.604;2022-09-09T06:15:29;100688.50;;;12.68;100.00
54540;BME280;40438;52.992;18.604;2022-09-09T06:17:55;100684.09;;;12.74;100.00
54540;BME280;40438;52.992;18.604;2022-09-09T06:20:21;100677.44;;;12.76;100.00
54540;BME280;40438;52.992;18.604;2022-09-09T06:22:48;100680.94;;;12.77;100.00
54540;BME280;40438;52.992;18.604;2022-09-09T06:25:14;100688.91;;;12.84;100.00
54540;BME280;40438;52.992;18.604;2022-09-09T06:27:40;100688.78;;;12.78;100.00
54540;BME280;40438;52.992;18.604;2022-09-09T06:30:07;100685.75;;;12.75;100.00
54540;BME280;40438;52.992;18.604;2022-09-09T06:32:33;100691.47;;;12.78;100.00
54540;BME280;40438;52.992;18.604;2022-09-09T06:34:59;100695.56;;;12.81;100.00
54540;BME280;40438;52.992;18.604;2022-09-09T06:37:24;100694.75;;;12.81;100.00
54540;BME280;40438;52.992;18.604;2022-09-09T06:39:52;100696.16;;;12.83;100.00
54540;BME280;40438;52.992;18.604;2022-09-09T06:42:17;100694.75;;;12.81;100.00
54540;BME280;40438;52.992;18.604;2022-09-09T06:44:51;100695.03;;;12.91;100.00
54540;BME280;40438;52.992;18.604;2022-09-09T06:47:28;100696.28;;;12.88;100.00
54540;BME280;40438;52.992;18.604;2022-09-09T06:49:56;100697.47;;;12.92;100.00
54540;BME280;40438;52.992;18.604;2022-09-09T06:52:22;100702.13;;;12.97;100.00
54540;BME280;40438;52.992;18.604;2022-09-09T06:54:49;100706.47;;;12.98;100.00
54540;BME280;40438;52.992;18.604;2022-09-09T06:57:17;100714.41;;;12.93;100.00
54540;BME280;40438;52.992;18.604;2022-09-09T06:59:43;100709.63;;;12.95;100.00
54540;BME280;40438;52.992;18.604;2022-09-09T07:02:08;100705.88;;;12.96;100.00
54540;BME280;40438;52.992;18.604;2022-09-09T07:04:34;100708.47;;;13.02;100.00
54540;BME280;40438;52.992;18.604;2022-09-09T07:07:00;100707.53;;;13.09;100.00
54540;BME280;40438;52.992;18.604;2022-09-09T07:09:26;100710.47;;;13.07;100.00
54540;BME280;40438;52.992;18.604;2022-09-09T07:11:53;100712.72;;;13.10;100.00
54540;BME280;40438;52.992;18.604;2022-09-09T07:14:22;100709.66;;;13.07;100.00
54540;BME280;40438;52.992;18.604;2022-09-09T07:16:52;100721.00;;;13.09;100.00
54540;BME280;40438;52.992;18.604;2022-09-09T07:19:18;100708.81;;;13.06;100.00
54540;BME280;40438;52.992;18.604;2022-09-09T07:21:47;100713.72;;;13.09;100.00
54540;BME280;40438;52.992;18.604;2022-09-09T07:24:17;100717.03;;;13.11;100.00
54540;BME280;40438;52.992;18.604;2022-09-09T07:26:43;100719.59;;;13.18;100.00
54540;BME280;40438;52.992;18.604;2022-09-09T07:29:10;100724.06;;;13.24;100.00
54540;BME280;40438;52.992;18.604;2022-09-09T07:31:39;100724.69;;;13.26;100.00
54540;BME280;40438;52.992;18.604;2022-09-09T07:34:09;100724.44;;;13.28;100.00
54540;BME280;40438;52.992;18.604;2022-09-09T07:36:36;100725.59;;;13.20;100.00
54540;BME280;40438;52.992;18.604;2022-09-09T07:39:04;100727.22;;;13.21;100.00
54540;BME280;40438;52.992;18.604;2022-09-09T07:41:34;100738.06;;;13.14;100.00
54540;BME280;40438;52.992;18.604;2022-09-09T07:44:04;100737.03;;;13.15;100.00
54540;BME280;40438;52.992;18.604;2022-09-09T07:46:30;100736.81;;;13.17;100.00
54540;BME280;40438;52.992;18.604;2022-09-09T07:48:57;100744.88;;;13.17;100.00
54540;BME280;40438;52.992;18.604;2022-09-09T07:51:28;100746.59;;;13.11;100.00
54540;BME280;40438;52.992;18.604;2022-09-09T07:53:56;100749.75;;;13.08;100.00
54540;BME280;40438;52.992;18.604;2022-09-09T07:56:22;100740.88;;;13.08;100.00
54540;BME280;40438;52.992;18.604;2022-09-09T07:58:48;100741.69;;;13.08;100.00
54540;BME280;40438;52.992;18.604;2022-09-09T08:01:17;100742.66;;;13.14;100.00
54540;BME280;40438;52.992;18.604;2022-09-09T08:03:43;100744.06;;;13.16;100.00
54540;BME280;40438;52.992;18.604;2022-09-09T08:06:11;100744.16;;;13.21;100.00
54540;BME280;40438;52.992;18.604;2022-09-09T08:08:38;100749.47;;;13.28;100.00
54540;BME280;40438;52.992;18.604;2022-09-09T08:11:07;100755.94;;;13.39;100.00
54540;BME280;40438;52.992;18.604;2022-09-09T08:13:34;100749.63;;;13.45;100.00
54540;BME280;40438;52.992;18.604;2022-09-09T08:16:07;100761.56;;;13.49;100.00
54540;BME280;40438;52.992;18.604;2022-09-09T08:18:34;100759.22;;;13.53;100.00
54540;BME280;40438;52.992;18.604;2022-09-09T08:21:09;100767.53;;;13.63;100.00
54540;BME280;40438;52.992;18.604;2022-09-09T08:23:36;100760.84;;;13.65;100.00
54540;BME280;40438;52.992;18.604;2022-09-09T08:26:07;100763.09;;;13.68;100.00
54540;BME280;40438;52.992;18.604;2022-09-09T08:28:35;100759.47;;;13.75;100.00
54540;BME280;40438;52.992;18.604;2022-09-09T08:31:09;100764.72;;;13.81;100.00
54540;BME280;40438;52.992;18.604;2022-09-09T08:33:35;100759.91;;;13.95;100.00
54540;BME280;40438;52.992;18.604;2022-09-09T08:36:01;100766.47;;;13.99;100.00
54540;BME280;40438;52.992;18.604;2022-09-09T08:38:27;100762.84;;;14.05;100.00
54540;BME280;40438;52.992;18.604;2022-09-09T08:40:59;100766.00;;;14.02;100.00
54540;BME280;40438;52.992;18.604;2022-09-09T08:43:29;100768.78;;;14.07;100.00
54540;BME280;40438;52.992;18.604;2022-09-09T08:45:59;100769.50;;;14.14;100.00
54540;BME280;40438;52.992;18.604;2022-09-09T08:48:40;100771.22;;;14.21;100.00
54540;BME280;40438;52.992;18.604;2022-09-09T08:51:10;100780.00;;;14.28;100.00
54540;BME280;40438;52.992;18.604;2022-09-09T08:53:43;100781.84;;;14.39;100.00
54540;BME280;40438;52.992;18.604;2022-09-09T08:56:14;100782.78;;;14.45;100.00
54540;BME280;40438;52.992;18.604;2022-09-09T08:58:48;100777.16;;;14.46;100.00
54540;BME280;40438;52.992;18.604;2022-09-09T09:01:26;100772.91;;;14.50;100.00
54540;BME280;40438;52.992;18.604;2022-09-09T09:04:02;100780.66;;;14.58;100.00
54540;BME280;40438;52.992;18.604;2022-09-09T09:06:42;100785.00;;;14.59;100.00
54540;BME280;40438;52.992;18.604;2022-09-09T09:09:16;100785.81;;;14.60;100.00
54540;BME280;40438;52.992;18.604;2022-09-09T09:11:49;100786.97;;;14.64;100.00
54540;BME280;40438;52.992;18.604;2022-09-09T09:14:19;100788.38;;;14.67;100.00
54540;BME280;40438;52.992;18.604;2022-09-09T09:16:50;100793.28;;;14.70;100.00
54540;BME280;40438;52.992;18.604;2022-09-09T09:19:17;100794.09;;;14.70;100.00
54540;BME280;40438;52.992;18.604;2022-09-09T09:21:50;100796.09;;;14.75;100.00
54540;BME280;40438;52.992;18.604;2022-09-09T09:24:20;100785.84;;;14.77;100.00
54540;BME280;40438;52.992;18.604;2022-09-09T09:26:48;100785.03;;;14.76;100.00
54540;BME280;40438;52.992;18.604;2022-09-09T09:29:15;100792.88;;;14.78;100.00
54540;BME280;40438;52.992;18.604;2022-09-09T09:31:43;100790.69;;;14.75;100.00
54540;BME280;40438;52.992;18.604;2022-09-09T09:34:11;100802.53;;;14.74;100.00
54540;BME280;40438;52.992;18.604;2022-09-09T09:36:41;100799.81;;;14.74;100.00
54540;BME280;40438;52.992;18.604;2022-09-09T09:39:09;100802.63;;;14.79;100.00
54540;BME280;40438;52.992;18.604;2022-09-09T09:41:41;100801.34;;;14.81;100.00
54540;BME280;40438;52.992;18.604;2022-09-09T09:44:23;100799.44;;;14.82;100.00
54540;BME280;40438;52.992;18.604;2022-09-09T09:46:49;100801.56;;;14.80;100.00
54540;BME280;40438;52.992;18.604;2022-09-09T09:49:15;100815.03;;;14.80;100.00
54540;BME280;40438;52.992;18.604;2022-09-09T09:51:42;100806.72;;;14.81;100.00
54540;BME280;40438;52.992;18.604;2022-09-09T09:54:16;100817.50;;;14.81;100.00
54540;BME280;40438;52.992;18.604;2022-09-09T09:56:47;100823.25;;;14.85;100.00
54540;BME280;40438;52.992;18.604;2022-09-09T09:59:34;100814.56;;;14.83;100.00
54540;BME280;40438;52.992;18.604;2022-09-09T10:02:20;100811.97;;;14.88;100.00
54540;BME280;40438;52.992;18.604;2022-09-09T10:05:00;100816.28;;;14.89;100.00
54540;BME280;40438;52.992;18.604;2022-09-09T10:07:27;100818.66;;;14.85;100.00
54540;BME280;40438;52.992;18.604;2022-09-09T10:09:53;100824.16;;;14.91;100.00
54540;BME280;40438;52.992;18.604;2022-09-09T10:12:31;100810.91;;;14.89;100.00
54540;BME280;40438;52.992;18.604;2022-09-09T10:15:07;100819.00;;;14.89;100.00
54540;BME280;40438;52.992;18.604;2022-09-09T10:17:53;100819.31;;;14.93;100.00
54540;BME280;40438;52.992;18.604;2022-09-09T10:20:30;100808.88;;;14.96;100.00
54540;BME280;40438;52.992;18.604;2022-09-09T10:23:05;100817.56;;;14.98;100.00
54540;BME280;40438;52.992;18.604;2022-09-09T10:25:52;100812.25;;;15.03;100.00
54540;BME280;40438;52.992;18.604;2022-09-09T10:28:46;100810.72;;;15.07;100.00
54540;BME280;40438;52.992;18.604;2022-09-09T10:31:26;100809.09;;;15.06;100.00
54540;BME280;40438;52.992;18.604;2022-09-09T10:34:02;100810.78;;;15.13;100.00
54540;BME280;40438;52.992;18.604;2022-09-09T10:36:32;100814.06;;;15.15;100.00
54540;BME280;40438;52.992;18.604;2022-09-09T10:39:01;100815.81;;;15.21;100.00
54540;BME280;40438;52.992;18.604;2022-09-09T10:41:48;100818.13;;;15.29;100.00
54540;BME280;40438;52.992;18.604;2022-09-09T10:44:29;100828.22;;;15.22;100.00
54540;BME280;40438;52.992;18.604;2022-09-09T10:47:12;100826.59;;;15.21;100.00
54540;BME280;40438;52.992;18.604;2022-09-09T10:50:07;100824.97;;;15.20;100.00
54540;BME280;40438;52.992;18.604;2022-09-09T10:52:36;100835.44;;;15.16;100.00
54540;BME280;40438;52.992;18.604;2022-09-09T10:55:10;100835.03;;;15.24;100.00
54540;BME280;40438;52.992;18.604;2022-09-09T10:57:40;100841.34;;;15.30;100.00
54540;BME280;40438;52.992;18.604;2022-09-09T11:00:16;100840.53;;;15.29;100.00
54540;BME280;40438;52.992;18.604;2022-09-09T11:02:43;100847.09;;;15.22;100.00
54540;BME280;40438;52.992;18.604;2022-09-09T11:05:14;100835.44;;;15.33;100.00
54540;BME280;40438;52.992;18.604;2022-09-09T11:07:47;100826.81;;;15.48;100.00
54540;BME280;40438;52.992;18.604;2022-09-09T11:10:21;100833.94;;;15.54;100.00
54540;BME280;40438;52.992;18.604;2022-09-09T11:12:51;100836.34;;;15.67;100.00
54540;BME280;40438;52.992;18.604;2022-09-09T11:15:22;100838.88;;;15.74;100.00
54540;BME280;40438;52.992;18.604;2022-09-09T11:17:53;100847.63;;;15.81;100.00
54540;BME280;40438;52.992;18.604;2022-09-09T11:20:21;100849.34;;;15.87;100.00
54540;BME280;40438;52.992;18.604;2022-09-09T11:22:49;100852.00;;;16.04;100.00
54540;BME280;40438;52.992;18.604;2022-09-09T11:25:18;100854.31;;;16.12;100.00
54540;BME280;40438;52.992;18.604;2022-09-09T11:28:02;100843.63;;;16.22;100.00
54540;BME280;40438;52.992;18.604;2022-09-09T11:30:42;100851.81;;;16.28;100.00
54540;BME280;40438;52.992;18.604;2022-09-09T11:33:31;100854.34;;;16.34;100.00
54540;BME280;40438;52.992;18.604;2022-09-09T11:36:24;100855.16;;;16.35;100.00
54540;BME280;40438;52.992;18.604;2022-09-09T11:38:57;100856.09;;;16.45;100.00
54540;BME280;40438;52.992;18.604;2022-09-09T11:41:33;100858.13;;;16.55;100.00
54540;BME280;40438;52.992;18.604;2022-09-09T11:44:10;100859.13;;;16.71;100.00
54540;BME280;40438;52.992;18.604;2022-09-09T11:46:38;100852.56;;;16.84;100.00
54540;BME280;40438;52.992;18.604;2022-09-09T11:49:06;100850.78;;;16.94;100.00
54540;BME280;40438;52.992;18.604;2022-09-09T11:51:50;100850.19;;;17.14;100.00
54540;BME280;40438;52.992;18.604;2022-09-09T11:54:29;100847.25;;;17.16;100.00
54540;BME280;40438;52.992;18.604;2022-09-09T11:56:55;100849.78;;;17.28;98.91
54540;BME280;40438;52.992;18.604;2022-09-09T11:59:23;100849.84;;;17.33;98.36
54540;BME280;40438;52.992;18.604;2022-09-09T12:01:50;100849.56;;;17.34;98.98
54540;BME280;40438;52.992;18.604;2022-09-09T12:04:30;100846.66;;;17.41;97.56
54540;BME280;40438;52.992;18.604;2022-09-09T12:07:00;100839.66;;;17.45;97.93
54540;BME280;40438;52.992;18.604;2022-09-09T12:09:42;100842.16;;;17.52;97.70
54540;BME280;40438;52.992;18.604;2022-09-09T12:12:24;100844.88;;;17.52;97.11
54540;BME280;40438;52.992;18.604;2022-09-09T12:15:15;100847.00;;;17.50;96.97
54540;BME280;40438;52.992;18.604;2022-09-09T12:17:43;100844.81;;;17.47;95.70
54540;BME280;40438;52.992;18.604;2022-09-09T12:20:14;100846.50;;;17.53;95.26
54540;BME280;40438;52.992;18.604;2022-09-09T12:25:32;100840.84;;;17.59;95.12
54540;BME280;40438;52.992;18.604;2022-09-09T12:28:05;100836.91;;;17.72;94.34
54540;BME280;40438;52.992;18.604;2022-09-09T12:30:39;100836.75;;;17.84;93.07
54540;BME280;40438;52.992;18.604;2022-09-09T12:33:10;100840.34;;;18.37;91.27
54540;BME280;40438;52.992;18.604;2022-09-09T12:35:38;100835.16;;;18.98;89.54
54540;BME280;40438;52.992;18.604;2022-09-09T12:38:06;100817.06;;;19.65;83.97
54540;BME280;40438;52.992;18.604;2022-09-09T12:40:37;100819.72;;;20.01;83.09
54540;BME280;40438;52.992;18.604;2022-09-09T12:43:17;100816.97;;;20.27;81.52
54540;BME280;40438;52.992;18.604;2022-09-09T12:45:43;100817.47;;;20.34;80.45
54540;BME280;40438;52.992;18.604;2022-09-09T12:48:09;100813.69;;;20.30;80.30
54540;BME280;40438;52.992;18.604;2022-09-09T12:50:43;100809.88;;;20.26;80.18